sensor_id;sensor_type;location;lat;lon;timestamp;temperature;humidity
4433;DHT22;2229;48.708;9.706;2023-11-22T00:00:47;8.30;99.90
4433;DHT22;2229;48.708;9.706;2023-11-22T00:03:14;8.20;99.90
4433;DHT22;2229;48.708;9.706;2023-11-22T00:05:41;8.30;99.90
4433;DHT22;2229;48.708;9.706;2023-11-22T00:08:09;8.30;99.90
4433;DHT22;2229;48.708;9.706;2023-11-22T00:10:36;8.30;99.90
4433;DHT22;2229;48.708;9.706;2023-11-22T00:13:03;8.20;99.90
4433;DHT22;2229;48.708;9.706;2023-11-22T00:15:32;8.10;99.90
4433;DHT22;2229;48.708;9.706;2023-11-22T00:17:59;8.00;99.90
4433;DHT22;2229;48.708;9.706;2023-11-22T00:20:30;7.90;99.90
4433;DHT22;2229;48.708;9.706;2023-11-22T00:23:02;7.80;99.90
4433;DHT22;2229;48.708;9.706;2023-11-22T00:25:30;7.70;99.90
4433;DHT22;2229;48.708;9.706;2023-11-22T00:27:58;7.70;99.90
4433;DHT22;2229;48.708;9.706;2023-11-22T00:30:25;7.70;99.90
4433;DHT22;2229;48.708;9.706;2023-11-22T00:32:54;7.60;99.90
4433;DHT22;2229;48.708;9.706;2023-11-22T00:35:22;7.50;99.90
4433;DHT22;2229;48.708;9.706;2023-11-22T00:37:50;7.40;99.90
4433;DHT22;2229;48.708;9.706;2023-11-22T00:40:17;7.30;99.90
4433;DHT22;2229;48.708;9.706;2023-11-22T00:42:44;7.20;99.90
4433;DHT22;2229;48.708;9.706;2023-11-22T00:45:12;7.10;99.90
4433;DHT22;2229;48.708;9.706;2023-11-22T00:47:39;7.00;99.90
4433;DHT22;2229;48.708;9.706;2023-11-22T00:50:10;7.00;99.90
4433;DHT22;2229;48.708;9.706;2023-11-22T00:52:37;7.00;99.90
4433;DHT22;2229;48.708;9.706;2023-11-22T00:55:05;7.00;99.90
4433;DHT22;2229;48.708;9.706;2023-11-22T00:57:32;6.90;99.90
4433;DHT22;2229;48.708;9.706;2023-11-22T00:59:59;6.90;99.90
4433;DHT22;2229;48.708;9.706;2023-11-22T01:02:29;6.90;99.90
4433;DHT22;2229;48.708;9.706;2023-11-22T01:04:57;6.90;99.90
4433;DHT22;2229;48.708;9.706;2023-11-22T01:07:25;6.80;99.90
4433;DHT22;2229;48.708;9.706;2023-11-22T01:09:52;6.80;99.90
4433;DHT22;2229;48.708;9.706;2023-11-22T01:12:20;6.80;99.90
4433;DHT22;2229;48.708;9.706;2023-11-22T01:14:47;6.70;99.90
4433;DHT22;2229;48.708;9.706;2023-11-22T01:17:14;6.70;99.90
4433;DHT22;2229;48.708;9.706;2023-11-22T01:19:42;6.60;99.90
4433;DHT22;2229;48.708;9.706;2023-11-22T01:22:09;6.60;99.90
4433;DHT22;2229;48.708;9.706;2023-11-22T01:24:38;6.60;99.90
4433;DHT22;2229;48.708;9.706;2023-11-22T01:27:05;6.60;99.90
4433;DHT22;2229;48.708;9.706;2023-11-22T01:29:32;6.50;99.90
4433;DHT22;2229;48.708;9.706;2023-11-22T01:32:00;6.50;99.90
4433;DHT22;2229;48.708;9.706;2023-11-22T01:34:28;6.50;99.90
4433;DHT22;2229;48.708;9.706;2023-11-22T01:36:57;6.50;99.90
4433;DHT22;2229;48.708;9.706;2023-11-22T01:39:24;6.40;99.90
4433;DHT22;2229;48.708;9.706;2023-11-22T01:41:54;6.40;99.90
4433;DHT22;2229;48.708;9.706;2023-11-22T01:44:22;6.40;99.90
4433;DHT22;2229;48.708;9.706;2023-11-22T01:46:50;6.30;99.90
4433;DHT22;2229;48.708;9.706;2023-11-22T01:49:18;6.30;99.90
4433;DHT22;2229;48.708;9.706;2023-11-22T01:51:45;6.30;99.90
4433;DHT22;2229;48.708;9.706;2023-11-22T01:54:13;6.30;99.90
4433;DHT22;2229;48.708;9.706;2023-11-22T01:56:41;6.30;99.90
4433;DHT22;2229;48.708;9.706;2023-11-22T01:59:10;6.50;99.90
4433;DHT22;2229;48.708;9.706;2023-11-22T02:01:38;6.30;99.90
4433;DHT22;2229;48.708;9.706;2023-11-22T02:04:06;6.30;99.90
4433;DHT22;2229;48.708;9.706;2023-11-22T02:06:33;6.30;99.90
4433;DHT22;2229;48.708;9.706;2023-11-22T02:09:01;6.30;99.90
4433;DHT22;2229;48.708;9.706;2023-11-22T02:11:28;6.30;99.90
4433;DHT22;2229;48.708;9.706;2023-11-22T02:13:55;6.30;99.90
4433;DHT22;2229;48.708;9.706;2023-11-22T02:16:24;6.30;99.90
4433;DHT22;2229;48.708;9.706;2023-11-22T02:18:51;6.30;99.90
4433;DHT22;2229;48.708;9.706;2023-11-22T02:21:19;6.20;99.90
4433;DHT22;2229;48.708;9.706;2023-11-22T02:23:48;6.10;99.90
4433;DHT22;2229;48.708;9.706;2023-11-22T02:26:16;6.10;99.90
4433;DHT22;2229;48.708;9.706;2023-11-22T02:28:44;6.10;99.90
4433;DHT22;2229;48.708;9.706;2023-11-22T02:31:12;6.10;99.90
4433;DHT22;2229;48.708;9.706;2023-11-22T02:33:40;6.10;99.90
4433;DHT22;2229;48.708;9.706;2023-11-22T02:36:08;6.00;99.90
4433;DHT22;2229;48.708;9.706;2023-11-22T02:38:38;6.00;99.90
4433;DHT22;2229;48.708;9.706;2023-11-22T02:41:07;6.00;99.90
4433;DHT22;2229;48.708;9.706;2023-11-22T02:43:34;6.00;99.90
4433;DHT22;2229;48.708;9.706;2023-11-22T02:46:02;5.90;99.90
4433;DHT22;2229;48.708;9.706;2023-11-22T02:48:29;5.80;99.90
4433;DHT22;2229;48.708;9.706;2023-11-22T02:50:57;5.70;99.90
4433;DHT22;2229;48.708;9.706;2023-11-22T02:53:26;5.70;99.90
4433;DHT22;2229;48.708;9.706;2023-11-22T02:55:53;5.70;99.90
4433;DHT22;2229;48.708;9.706;2023-11-22T02:58:22;5.60;99.90
4433;DHT22;2229;48.708;9.706;2023-11-22T03:00:49;5.60;99.90
4433;DHT22;2229;48.708;9.706;2023-11-22T03:03:20;5.50;99.90
4433;DHT22;2229;48.708;9.706;2023-11-22T03:05:47;5.60;99.90
4433;DHT22;2229;48.708;9.706;2023-11-22T03:08:15;5.60;99.90
4433;DHT22;2229;48.708;9.706;2023-11-22T03:10:42;5.60;99.90
4433;DHT22;2229;48.708;9.706;2023-11-22T03:13:10;5.50;99.90
4433;DHT22;2229;48.708;9.706;2023-11-22T03:15:39;5.50;99.90
4433;DHT22;2229;48.708;9.706;2023-11-22T03:18:08;5.40;99.90
4433;DHT22;2229;48.708;9.706;2023-11-22T03:20:37;5.50;99.90
4433;DHT22;2229;48.708;9.706;2023-11-22T03:23:05;5.50;99.90
4433;DHT22;2229;48.708;9.706;2023-11-22T03:25:32;5.40;99.90
4433;DHT22;2229;48.708;9.706;2023-11-22T03:27:59;5.40;99.90
4433;DHT22;2229;48.708;9.706;2023-11-22T03:30:27;5.40;99.90
4433;DHT22;2229;48.708;9.706;2023-11-22T03:32:55;5.50;99.90
4433;DHT22;2229;48.708;9.706;2023-11-22T03:35:22;5.40;99.90
4433;DHT22;2229;48.708;9.706;2023-11-22T03:37:49;5.40;99.90
4433;DHT22;2229;48.708;9.706;2023-11-22T03:40:17;5.40;99.90
4433;DHT22;2229;48.708;9.706;2023-11-22T03:42:44;5.40;99.90
4433;DHT22;2229;48.708;9.706;2023-11-22T03:45:14;5.40;99.90
4433;DHT22;2229;48.708;9.706;2023-11-22T03:47:41;5.40;99.90
4433;DHT22;2229;48.708;9.706;2023-11-22T03:50:10;5.40;99.90
4433;DHT22;2229;48.708;9.706;2023-11-22T03:52:37;5.40;99.90
4433;DHT22;2229;48.708;9.706;2023-11-22T03:55:05;5.30;99.90
4433;DHT22;2229;48.708;9.706;2023-11-22T03:57:32;5.30;99.90
4433;DHT22;2229;48.708;9.706;2023-11-22T03:59:59;5.30;99.90
4433;DHT22;2229;48.708;9.706;2023-11-22T04:02:27;5.20;99.90
4433;DHT22;2229;48.708;9.706;2023-11-22T04:04:55;5.20;99.90
4433;DHT22;2229;48.708;9.706;2023-11-22T04:07:24;5.10;99.90
4433;DHT22;2229;48.708;9.706;2023-11-22T04:09:51;5.10;99.90
4433;DHT22;2229;48.708;9.706;2023-11-22T04:12:18;5.00;99.90
4433;DHT22;2229;48.708;9.706;2023-11-22T04:14:45;5.00;99.90
4433;DHT22;2229;48.708;9.706;2023-11-22T04:17:13;5.00;99.90
4433;DHT22;2229;48.708;9.706;2023-11-22T04:19:40;4.90;99.90
4433;DHT22;2229;48.708;9.706;2023-11-22T04:22:07;4.90;99.90
4433;DHT22;2229;48.708;9.706;2023-11-22T04:24:38;4.90;99.90
4433;DHT22;2229;48.708;9.706;2023-11-22T04:27:05;4.80;99.90
4433;DHT22;2229;48.708;9.706;2023-11-22T04:29:33;4.80;99.90
4433;DHT22;2229;48.708;9.706;2023-11-22T04:32:00;4.80;99.90
4433;DHT22;2229;48.708;9.706;2023-11-22T04:34:27;4.80;99.90
4433;DHT22;2229;48.708;9.706;2023-11-22T04:36:54;4.80;99.90
4433;DHT22;2229;48.708;9.706;2023-11-22T04:39:22;4.80;99.90
4433;DHT22;2229;48.708;9.706;2023-11-22T04:41:50;4.80;99.90
4433;DHT22;2229;48.708;9.706;2023-11-22T04:44:18;5.10;99.90
4433;DHT22;2229;48.708;9.706;2023-11-22T04:46:46;4.80;99.90
4433;DHT22;2229;48.708;9.706;2023-11-22T04:49:14;4.80;99.90
4433;DHT22;2229;48.708;9.706;2023-11-22T04:51:41;4.80;99.90
4433;DHT22;2229;48.708;9.706;2023-11-22T04:54:09;4.80;99.90
4433;DHT22;2229;48.708;9.706;2023-11-22T04:56:36;4.80;99.90
4433;DHT22;2229;48.708;9.706;2023-11-22T04:59:05;4.80;99.90
4433;DHT22;2229;48.708;9.706;2023-11-22T05:01:32;4.80;99.90
4433;DHT22;2229;48.708;9.706;2023-11-22T05:04:00;4.80;99.90
4433;DHT22;2229;48.708;9.706;2023-11-22T05:06:27;4.80;99.90
4433;DHT22;2229;48.708;9.706;2023-11-22T05:08:55;4.80;99.90
4433;DHT22;2229;48.708;9.706;2023-11-22T05:11:22;4.70;99.90
4433;DHT22;2229;48.708;9.706;2023-11-22T05:13:49;4.80;99.90
4433;DHT22;2229;48.708;9.706;2023-11-22T05:16:18;4.70;99.90
4433;DHT22;2229;48.708;9.706;2023-11-22T05:18:45;4.70;99.90
4433;DHT22;2229;48.708;9.706;2023-11-22T05:21:13;4.70;99.90
4433;DHT22;2229;48.708;9.706;2023-11-22T05:23:40;4.70;99.90
4433;DHT22;2229;48.708;9.706;2023-11-22T05:26:07;4.70;99.90
4433;DHT22;2229;48.708;9.706;2023-11-22T05:28:35;4.70;99.90
4433;DHT22;2229;48.708;9.706;2023-11-22T05:31:02;4.70;99.90
4433;DHT22;2229;48.708;9.706;2023-11-22T05:33:31;4.70;99.90
4433;DHT22;2229;48.708;9.706;2023-11-22T05:35:58;4.70;99.90
4433;DHT22;2229;48.708;9.706;2023-11-22T05:38:25;4.70;99.90
4433;DHT22;2229;48.708;9.706;2023-11-22T05:40:52;4.70;99.90
4433;DHT22;2229;48.708;9.706;2023-11-22T05:43:19;4.70;99.90
4433;DHT22;2229;48.708;9.706;2023-11-22T05:45:52;4.70;99.90
4433;DHT22;2229;48.708;9.706;2023-11-22T05:48:19;4.70;99.90
4433;DHT22;2229;48.708;9.706;2023-11-22T05:50:48;4.70;99.90
4433;DHT22;2229;48.708;9.706;2023-11-22T05:53:15;4.70;99.90
4433;DHT22;2229;48.708;9.706;2023-11-22T05:55:45;4.70;99.90
4433;DHT22;2229;48.708;9.706;2023-11-22T05:58:13;4.70;99.90
4433;DHT22;2229;48.708;9.706;2023-11-22T06:00:42;4.60;99.90
4433;DHT22;2229;48.708;9.706;2023-11-22T06:03:10;4.70;99.90
4433;DHT22;2229;48.708;9.706;2023-11-22T06:05:38;4.70;99.90
4433;DHT22;2229;48.708;9.706;2023-11-22T06:08:07;4.70;99.90
4433;DHT22;2229;48.708;9.706;2023-11-22T06:10:35;4.70;99.90
4433;DHT22;2229;48.708;9.706;2023-11-22T06:13:03;4.90;99.90
4433;DHT22;2229;48.708;9.706;2023-11-22T06:15:31;4.70;99.90
4433;DHT22;2229;48.708;9.706;2023-11-22T06:17:59;4.70;99.90
4433;DHT22;2229;48.708;9.706;2023-11-22T06:20:26;4.70;99.90
4433;DHT22;2229;48.708;9.706;2023-11-22T06:22:53;4.70;99.90
4433;DHT22;2229;48.708;9.706;2023-11-22T06:25:22;4.80;99.90
4433;DHT22;2229;48.708;9.706;2023-11-22T06:27:49;4.80;99.90
4433;DHT22;2229;48.708;9.706;2023-11-22T06:30:17;4.80;99.90
4433;DHT22;2229;48.708;9.706;2023-11-22T06:32:46;4.80;99.90
4433;DHT22;2229;48.708;9.706;2023-11-22T06:35:13;4.80;99.90
4433;DHT22;2229;48.708;9.706;2023-11-22T06:37:41;4.80;99.90
4433;DHT22;2229;48.708;9.706;2023-11-22T06:40:10;4.80;99.90
4433;DHT22;2229;48.708;9.706;2023-11-22T06:42:39;4.80;99.90
4433;DHT22;2229;48.708;9.706;2023-11-22T06:45:08;4.80;99.90
4433;DHT22;2229;48.708;9.706;2023-11-22T06:47:38;4.80;99.90
4433;DHT22;2229;48.708;9.706;2023-11-22T06:50:06;4.80;99.90
4433;DHT22;2229;48.708;9.706;2023-11-22T06:52:35;4.80;99.90
4433;DHT22;2229;48.708;9.706;2023-11-22T06:55:02;4.80;99.90
4433;DHT22;2229;48.708;9.706;2023-11-22T06:57:29;4.70;99.90
4433;DHT22;2229;48.708;9.706;2023-11-22T06:59:58;4.80;99.90
4433;DHT22;2229;48.708;9.706;2023-11-22T07:02:27;4.80;99.90
4433;DHT22;2229;48.708;9.706;2023-11-22T07:04:54;4.70;99.90
4433;DHT22;2229;48.708;9.706;2023-11-22T07:07:21;4.70;99.90
4433;DHT22;2229;48.708;9.706;2023-11-22T07:09:48;4.80;99.90
4433;DHT22;2229;48.708;9.706;2023-11-22T07:12:17;4.80;99.90
4433;DHT22;2229;48.708;9.706;2023-11-22T07:14:49;4.80;99.90
4433;DHT22;2229;48.708;9.706;2023-11-22T07:17:18;4.70;99.90
4433;DHT22;2229;48.708;9.706;2023-11-22T07:19:45;4.70;99.90
4433;DHT22;2229;48.708;9.706;2023-11-22T07:22:14;4.70;99.90
4433;DHT22;2229;48.708;9.706;2023-11-22T07:24:43;4.80;99.90
4433;DHT22;2229;48.708;9.706;2023-11-22T07:27:11;4.70;99.90
4433;DHT22;2229;48.708;9.706;2023-11-22T07:29:40;4.70;99.90
4433;DHT22;2229;48.708;9.706;2023-11-22T07:32:07;4.80;99.90
4433;DHT22;2229;48.708;9.706;2023-11-22T07:34:38;4.70;99.90
4433;DHT22;2229;48.708;9.706;2023-11-22T07:37:06;4.70;99.90
4433;DHT22;2229;48.708;9.706;2023-11-22T07:39:34;4.70;99.90
4433;DHT22;2229;48.708;9.706;2023-11-22T07:42:03;4.70;99.90
4433;DHT22;2229;48.708;9.706;2023-11-22T07:44:33;4.70;99.90
4433;DHT22;2229;48.708;9.706;2023-11-22T07:47:02;4.70;99.90
4433;DHT22;2229;48.708;9.706;2023-11-22T07:49:31;4.70;99.90
4433;DHT22;2229;48.708;9.706;2023-11-22T07:52:04;4.80;99.90
4433;DHT22;2229;48.708;9.706;2023-11-22T07:54:32;4.70;99.90
4433;DHT22;2229;48.708;9.706;2023-11-22T07:57:03;4.80;99.90
4433;DHT22;2229;48.708;9.706;2023-11-22T07:59:31;4.80;99.90
4433;DHT22;2229;48.708;9.706;2023-11-22T08:02:04;4.80;99.90
4433;DHT22;2229;48.708;9.706;2023-11-22T08:04:36;4.80;99.90
4433;DHT22;2229;48.708;9.706;2023-11-22T08:07:05;4.80;99.90
4433;DHT22;2229;48.708;9.706;2023-11-22T08:09:33;4.80;99.90
4433;DHT22;2229;48.708;9.706;2023-11-22T08:12:00;4.80;99.90
4433;DHT22;2229;48.708;9.706;2023-11-22T08:14:28;4.80;99.90
4433;DHT22;2229;48.708;9.706;2023-11-22T08:16:56;4.80;99.90
4433;DHT22;2229;48.708;9.706;2023-11-22T08:19:23;4.80;99.90
4433;DHT22;2229;48.708;9.706;2023-11-22T08:21:50;4.80;99.90
4433;DHT22;2229;48.708;9.706;2023-11-22T08:24:20;4.80;99.90
4433;DHT22;2229;48.708;9.706;2023-11-22T08:26:47;4.80;99.90
4433;DHT22;2229;48.708;9.706;2023-11-22T08:29:15;4.80;99.90
4433;DHT22;2229;48.708;9.706;2023-11-22T08:31:42;4.80;99.90
4433;DHT22;2229;48.708;9.706;2023-11-22T08:34:09;4.80;99.90
4433;DHT22;2229;48.708;9.706;2023-11-22T08:36:37;4.80;99.90
4433;DHT22;2229;48.708;9.706;2023-11-22T08:39:04;4.80;99.90
4433;DHT22;2229;48.708;9.706;2023-11-22T08:41:33;4.80;99.90
4433;DHT22;2229;48.708;9.706;2023-11-22T08:44:00;4.80;99.90
4433;DHT22;2229;48.708;9.706;2023-11-22T08:46:27;4.70;99.90
4433;DHT22;2229;48.708;9.706;2023-11-22T08:48:55;4.70;99.90
4433;DHT22;2229;48.708;9.706;2023-11-22T08:51:22;4.70;99.90
4433;DHT22;2229;48.708;9.706;2023-11-22T08:53:50;4.70;99.90
4433;DHT22;2229;48.708;9.706;2023-11-22T08:56:17;4.70;99.90
4433;DHT22;2229;48.708;9.706;2023-11-22T08:58:47;4.60;99.90
4433;DHT22;2229;48.708;9.706;2023-11-22T09:01:14;4.70;99.90
4433;DHT22;2229;48.708;9.706;2023-11-22T09:03:43;4.50;99.90
4433;DHT22;2229;48.708;9.706;2023-11-22T09:06:10;4.40;99.90
4433;DHT22;2229;48.708;9.706;2023-11-22T09:08:38;4.30;99.90
4433;DHT22;2229;48.708;9.706;2023-11-22T09:11:06;4.30;99.90
4433;DHT22;2229;48.708;9.706;2023-11-22T09:13:33;4.30;99.90
4433;DHT22;2229;48.708;9.706;2023-11-22T09:16:02;4.30;99.90
4433;DHT22;2229;48.708;9.706;2023-11-22T09:18:31;4.30;99.90
4433;DHT22;2229;48.708;9.706;2023-11-22T09:20:58;4.30;99.90
4433;DHT22;2229;48.708;9.706;2023-11-22T09:23:25;4.30;99.90
4433;DHT22;2229;48.708;9.706;2023-11-22T09:25:53;4.30;99.90
4433;DHT22;2229;48.708;9.706;2023-11-22T09:28:20;4.30;99.90
4433;DHT22;2229;48.708;9.706;2023-11-22T09:30:47;4.30;99.90
4433;DHT22;2229;48.708;9.706;2023-11-22T09:33:16;4.30;99.90
4433;DHT22;2229;48.708;9.706;2023-11-22T09:35:46;4.30;99.90
4433;DHT22;2229;48.708;9.706;2023-11-22T09:38:13;4.30;99.90
4433;DHT22;2229;48.708;9.706;2023-11-22T09:40:42;4.10;99.90
4433;DHT22;2229;48.708;9.706;2023-11-22T09:43:12;4.20;99.90
4433;DHT22;2229;48.708;9.706;2023-11-22T09:45:41;4.20;99.90
4433;DHT22;2229;48.708;9.706;2023-11-22T09:48:17;4.20;99.90
4433;DHT22;2229;48.708;9.706;2023-11-22T09:50:52;4.20;99.90
4433;DHT22;2229;48.708;9.706;2023-11-22T09:53:25;4.20;99.90
4433;DHT22;2229;48.708;9.706;2023-11-22T09:55:58;4.20;99.90
4433;DHT22;2229;48.708;9.706;2023-11-22T09:58:25;4.20;99.90
4433;DHT22;2229;48.708;9.706;2023-11-22T10:00:55;4.10;99.90
4433;DHT22;2229;48.708;9.706;2023-11-22T10:03:27;4.10;99.90
4433;DHT22;2229;48.708;9.706;2023-11-22T10:05:56;4.20;99.90
4433;DHT22;2229;48.708;9.706;2023-11-22T10:08:25;4.20;99.90
4433;DHT22;2229;48.708;9.706;2023-11-22T10:10:59;4.20;99.90
4433;DHT22;2229;48.708;9.706;2023-11-22T10:13:26;4.20;99.90
4433;DHT22;2229;48.708;9.706;2023-11-22T10:15:54;4.20;99.90
4433;DHT22;2229;48.708;9.706;2023-11-22T10:18:21;4.20;99.90
4433;DHT22;2229;48.708;9.706;2023-11-22T10:20:52;4.30;99.90
4433;DHT22;2229;48.708;9.706;2023-11-22T10:23:20;4.30;99.90
4433;DHT22;2229;48.708;9.706;2023-11-22T10:25:51;4.30;99.90
4433;DHT22;2229;48.708;9.706;2023-11-22T10:28:19;4.30;99.90
4433;DHT22;2229;48.708;9.706;2023-11-22T10:30:48;4.30;99.90
4433;DHT22;2229;48.708;9.706;2023-11-22T10:33:15;4.40;99.90
4433;DHT22;2229;48.708;9.706;2023-11-22T10:35:43;4.40;99.90
4433;DHT22;2229;48.708;9.706;2023-11-22T10:38:15;4.40;99.90
4433;DHT22;2229;48.708;9.706;2023-11-22T10:40:43;4.40;99.90
4433;DHT22;2229;48.708;9.706;2023-11-22T10:43:11;4.40;99.90
4433;DHT22;2229;48.708;9.706;2023-11-22T10:45:38;4.50;99.90
4433;DHT22;2229;48.708;9.706;2023-11-22T10:48:07;4.50;99.90
4433;DHT22;2229;48.708;9.706;2023-11-22T10:50:35;4.50;99.90
4433;DHT22;2229;48.708;9.706;2023-11-22T10:53:07;4.50;99.90
4433;DHT22;2229;48.708;9.706;2023-11-22T10:55:45;4.50;99.90
4433;DHT22;2229;48.708;9.706;2023-11-22T10:58:14;4.50;99.90
4433;DHT22;2229;48.708;9.706;2023-11-22T11:00:42;4.50;99.90
4433;DHT22;2229;48.708;9.706;2023-11-22T11:03:14;4.60;99.90
4433;DHT22;2229;48.708;9.706;2023-11-22T11:05:45;4.60;99.90
4433;DHT22;2229;48.708;9.706;2023-11-22T11:08:17;4.60;99.90
4433;DHT22;2229;48.708;9.706;2023-11-22T11:10:48;4.60;99.90
4433;DHT22;2229;48.708;9.706;2023-11-22T11:13:19;4.70;99.90
4433;DHT22;2229;48.708;9.706;2023-11-22T11:15:46;4.70;99.90
4433;DHT22;2229;48.708;9.706;2023-11-22T11:18:20;4.70;99.90
4433;DHT22;2229;48.708;9.706;2023-11-22T11:20:48;4.70;99.90
4433;DHT22;2229;48.708;9.706;2023-11-22T11:23:17;4.70;99.90
4433;DHT22;2229;48.708;9.706;2023-11-22T11:25:47;4.80;99.90
4433;DHT22;2229;48.708;9.706;2023-11-22T11:28:15;4.80;99.90
4433;DHT22;2229;48.708;9.706;2023-11-22T11:30:45;4.70;99.90
4433;DHT22;2229;48.708;9.706;2023-11-22T11:33:15;4.70;99.90
4433;DHT22;2229;48.708;9.706;2023-11-22T11:35:44;4.70;99.90
4433;DHT22;2229;48.708;9.706;2023-11-22T11:38:13;4.70;99.90
4433;DHT22;2229;48.708;9.706;2023-11-22T11:40:41;4.70;99.90
4433;DHT22;2229;48.708;9.706;2023-11-22T11:43:11;4.70;99.90
4433;DHT22;2229;48.708;9.706;2023-11-22T11:45:39;4.70;99.90
4433;DHT22;2229;48.708;9.706;2023-11-22T11:48:12;4.70;99.90
4433;DHT22;2229;48.708;9.706;2023-11-22T11:50:41;4.70;99.90
4433;DHT22;2229;48.708;9.706;2023-11-22T11:53:19;4.70;99.90
4433;DHT22;2229;48.708;9.706;2023-11-22T11:55:46;4.70;99.90
4433;DHT22;2229;48.708;9.706;2023-11-22T11:58:18;4.70;99.90
4433;DHT22;2229;48.708;9.706;2023-11-22T12:00:45;4.70;99.90
4433;DHT22;2229;48.708;9.706;2023-11-22T12:03:12;4.70;99.90
4433;DHT22;2229;48.708;9.706;2023-11-22T12:05:44;4.70;99.90
4433;DHT22;2229;48.708;9.706;2023-11-22T12:08:13;4.70;99.90
4433;DHT22;2229;48.708;9.706;2023-11-22T12:10:41;4.70;99.90
4433;DHT22;2229;48.708;9.706;2023-11-22T12:13:08;4.70;99.90
4433;DHT22;2229;48.708;9.706;2023-11-22T12:15:37;4.70;99.90
4433;DHT22;2229;48.708;9.706;2023-11-22T12:18:05;4.70;99.90
4433;DHT22;2229;48.708;9.706;2023-11-22T12:20:33;4.70;99.90
4433;DHT22;2229;48.708;9.706;2023-11-22T12:23:01;4.70;99.90
4433;DHT22;2229;48.708;9.706;2023-11-22T12:25:30;4.70;99.90
4433;DHT22;2229;48.708;9.706;2023-11-22T12:27:57;4.70;99.90
4433;DHT22;2229;48.708;9.706;2023-11-22T12:30:31;4.70;99.90
4433;DHT22;2229;48.708;9.706;2023-11-22T12:33:04;4.60;99.90
4433;DHT22;2229;48.708;9.706;2023-11-22T12:35:33;4.70;99.90
4433;DHT22;2229;48.708;9.706;2023-11-22T12:38:02;4.70;99.90
4433;DHT22;2229;48.708;9.706;2023-11-22T12:40:31;4.60;99.90
4433;DHT22;2229;48.708;9.706;2023-11-22T12:42:59;4.60;99.90
4433;DHT22;2229;48.708;9.706;2023-11-22T12:45:28;4.60;99.90
4433;DHT22;2229;48.708;9.706;2023-11-22T12:47:56;4.60;99.90
4433;DHT22;2229;48.708;9.706;2023-11-22T12:50:33;4.60;99.90
4433;DHT22;2229;48.708;9.706;2023-11-22T12:53:08;4.60;99.90
4433;DHT22;2229;48.708;9.706;2023-11-22T12:55:37;4.60;99.90
4433;DHT22;2229;48.708;9.706;2023-11-22T12:58:05;4.60;99.90
4433;DHT22;2229;48.708;9.706;2023-11-22T13:00:33;4.50;99.90
4433;DHT22;2229;48.708;9.706;2023-11-22T13:03:01;4.60;99.90
4433;DHT22;2229;48.708;9.706;2023-11-22T13:05:29;4.60;99.90
4433;DHT22;2229;48.708;9.706;2023-11-22T13:07:58;4.60;99.90
4433;DHT22;2229;48.708;9.706;2023-11-22T13:10:25;4.60;99.90
4433;DHT22;2229;48.708;9.706;2023-11-22T13:12:53;4.60;99.90
4433;DHT22;2229;48.708;9.706;2023-11-22T13:15:21;4.60;99.90
4433;DHT22;2229;48.708;9.706;2023-11-22T13:17:50;4.60;99.90
4433;DHT22;2229;48.708;9.706;2023-11-22T13:20:22;4.60;99.90
4433;DHT22;2229;48.708;9.706;2023-11-22T13:22:49;4.50;99.90
4433;DHT22;2229;48.708;9.706;2023-11-22T13:25:25;4.50;99.90
4433;DHT22;2229;48.708;9.706;2023-11-22T13:27:53;4.50;99.90
4433;DHT22;2229;48.708;9.706;2023-11-22T13:30:23;4.50;99.90
4433;DHT22;2229;48.708;9.706;2023-11-22T13:32:51;4.50;99.90
4433;DHT22;2229;48.708;9.706;2023-11-22T13:35:20;4.50;99.90
4433;DHT22;2229;48.708;9.706;2023-11-22T13:37:48;4.50;99.90
4433;DHT22;2229;48.708;9.706;2023-11-22T13:40:19;4.50;99.90
4433;DHT22;2229;48.708;9.706;2023-11-22T13:42:50;4.50;99.90
4433;DHT22;2229;48.708;9.706;2023-11-22T13:45:23;4.50;99.90
4433;DHT22;2229;48.708;9.706;2023-11-22T13:47:53;4.50;99.90
4433;DHT22;2229;48.708;9.706;2023-11-22T13:50:25;4.50;99.90
4433;DHT22;2229;48.708;9.706;2023-11-22T13:52:54;4.40;99.90
4433;DHT22;2229;48.708;9.706;2023-11-22T13:55:24;4.40;99.90
4433;DHT22;2229;48.708;9.706;2023-11-22T13:57:54;4.30;99.90
4433;DHT22;2229;48.708;9.706;2023-11-22T14:00:24;4.40;99.90
4433;DHT22;2229;48.708;9.706;2023-11-22T14:02:54;4.40;99.90
4433;DHT22;2229;48.708;9.706;2023-11-22T14:05:23;4.40;99.90
4433;DHT22;2229;48.708;9.706;2023-11-22T14:07:51;4.50;99.90
4433;DHT22;2229;48.708;9.706;2023-11-22T14:10:20;4.40;99.90
4433;DHT22;2229;48.708;9.706;2023-11-22T14:12:49;4.40;99.90
4433;DHT22;2229;48.708;9.706;2023-11-22T14:15:18;4.40;99.90
4433;DHT22;2229;48.708;9.706;2023-11-22T14:17:46;4.40;99.90
4433;DHT22;2229;48.708;9.706;2023-11-22T14:20:17;4.40;99.90
4433;DHT22;2229;48.708;9.706;2023-11-22T14:22:44;4.40;99.90
4433;DHT22;2229;48.708;9.706;2023-11-22T14:25:11;4.40;99.90
4433;DHT22;2229;48.708;9.706;2023-11-22T14:27:40;4.40;99.90
4433;DHT22;2229;48.708;9.706;2023-11-22T14:30:08;4.30;99.90
4433;DHT22;2229;48.708;9.706;2023-11-22T14:32:38;4.30;99.90
4433;DHT22;2229;48.708;9.706;2023-11-22T14:35:06;4.30;99.90
4433;DHT22;2229;48.708;9.706;2023-11-22T14:37:35;4.30;99.90
4433;DHT22;2229;48.708;9.706;2023-11-22T14:40:05;4.30;99.90
4433;DHT22;2229;48.708;9.706;2023-11-22T14:42:40;4.30;99.90
4433;DHT22;2229;48.708;9.706;2023-11-22T14:45:08;4.30;99.90
4433;DHT22;2229;48.708;9.706;2023-11-22T14:47:38;4.20;99.90
4433;DHT22;2229;48.708;9.706;2023-11-22T14:50:07;4.20;99.90
4433;DHT22;2229;48.708;9.706;2023-11-22T14:52:36;4.20;99.90
4433;DHT22;2229;48.708;9.706;2023-11-22T14:55:04;4.20;99.90
4433;DHT22;2229;48.708;9.706;2023-11-22T14:57:32;4.20;99.90
4433;DHT22;2229;48.708;9.706;2023-11-22T14:59:59;4.20;99.90
4433;DHT22;2229;48.708;9.706;2023-11-22T15:02:26;4.20;99.90
4433;DHT22;2229;48.708;9.706;2023-11-22T15:04:56;4.20;99.90
4433;DHT22;2229;48.708;9.706;2023-11-22T15:07:29;4.10;99.90
4433;DHT22;2229;48.708;9.706;2023-11-22T15:09:56;4.10;99.90
4433;DHT22;2229;48.708;9.706;2023-11-22T15:12:26;4.10;99.90
4433;DHT22;2229;48.708;9.706;2023-11-22T15:14:56;4.10;99.90
4433;DHT22;2229;48.708;9.706;2023-11-22T15:17:23;4.00;99.90
4433;DHT22;2229;48.708;9.706;2023-11-22T15:19:50;4.00;99.90
4433;DHT22;2229;48.708;9.706;2023-11-22T15:22:19;4.00;99.90
4433;DHT22;2229;48.708;9.706;2023-11-22T15:24:46;3.90;99.90
4433;DHT22;2229;48.708;9.706;2023-11-22T15:27:14;3.90;99.90
4433;DHT22;2229;48.708;9.706;2023-11-22T15:29:41;3.90;99.90
4433;DHT22;2229;48.708;9.706;2023-11-22T15:32:08;3.90;99.90
4433;DHT22;2229;48.708;9.706;2023-11-22T15:34:35;3.90;99.90
4433;DHT22;2229;48.708;9.706;2023-11-22T15:37:03;3.80;99.90
4433;DHT22;2229;48.708;9.706;2023-11-22T15:39:32;3.80;99.90
4433;DHT22;2229;48.708;9.706;2023-11-22T15:41:59;3.70;99.90
4433;DHT22;2229;48.708;9.706;2023-11-22T15:44:26;3.80;99.90
4433;DHT22;2229;48.708;9.706;2023-11-22T15:46:55;4.10;99.90
4433;DHT22;2229;48.708;9.706;2023-11-22T15:49:22;3.80;99.90
4433;DHT22;2229;48.708;9.706;2023-11-22T15:51:49;3.70;99.90
4433;DHT22;2229;48.708;9.706;2023-11-22T15:54:16;3.80;99.90
4433;DHT22;2229;48.708;9.706;2023-11-22T15:56:45;3.70;99.90
4433;DHT22;2229;48.708;9.706;2023-11-22T15:59:12;3.70;99.90
4433;DHT22;2229;48.708;9.706;2023-11-22T16:01:39;3.80;99.90
4433;DHT22;2229;48.708;9.706;2023-11-22T16:04:10;3.80;99.90
4433;DHT22;2229;48.708;9.706;2023-11-22T16:06:38;3.80;99.90
4433;DHT22;2229;48.708;9.706;2023-11-22T16:09:05;3.70;99.90
4433;DHT22;2229;48.708;9.706;2023-11-22T16:11:33;3.70;99.90
4433;DHT22;2229;48.708;9.706;2023-11-22T16:14:01;3.70;99.90
4433;DHT22;2229;48.708;9.706;2023-11-22T16:16:29;3.60;99.90
4433;DHT22;2229;48.708;9.706;2023-11-22T16:18:57;3.60;99.90
4433;DHT22;2229;48.708;9.706;2023-11-22T16:21:24;3.60;99.90
4433;DHT22;2229;48.708;9.706;2023-11-22T16:23:52;3.70;99.90